sensor_id;sensor_type;location;lat;lon;timestamp;pressure;altitude;pressure_sealevel;temperature;humidity
63088;BME280;49173;43.164;27.786;2023-06-24T00:01:05;100541.38;;;22.76;70.70
63088;BME280;49173;43.164;27.786;2023-06-24T00:03:39;100542.53;;;22.73;71.07
63088;BME280;49173;43.164;27.786;2023-06-24T00:06:05;100544.44;;;22.73;71.67
63088;BME280;49173;43.164;27.786;2023-06-24T00:08:30;100541.53;;;22.74;71.76
63088;BME280;49173;43.164;27.786;2023-06-24T00:11:03;100543.97;;;22.78;71.58
63088;BME280;49173;43.164;27.786;2023-06-24T00:13:29;100540.50;;;22.75;71.41
63088;BME280;49173;43.164;27.786;2023-06-24T00:15:55;100538.50;;;22.78;70.19
63088;BME280;49173;43.164;27.786;2023-06-24T00:18:21;100544.44;;;22.73;70.49
63088;BME280;49173;43.164;27.786;2023-06-24T00:20:50;100544.88;;;22.68;70.37
63088;BME280;49173;43.164;27.786;2023-06-24T00:23:22;100545.84;;;22.59;69.95
63088;BME280;49173;43.164;27.786;2023-06-24T00:25:51;100548.50;;;22.51;70.04
63088;BME280;49173;43.164;27.786;2023-06-24T00:28:17;100528.97;;;22.46;69.91
63088;BME280;49173;43.164;27.786;2023-06-24T00:30:43;100531.78;;;22.36;69.88
63088;BME280;49173;43.164;27.786;2023-06-24T00:33:09;100537.72;;;22.32;70.16
63088;BME280;49173;43.164;27.786;2023-06-24T00:35:37;100532.88;;;22.26;69.53
63088;BME280;49173;43.164;27.786;2023-06-24T00:38:05;100533.81;;;22.16;69.79
63088;BME280;49173;43.164;27.786;2023-06-24T00:40:32;100525.22;;;22.11;70.52
63088;BME280;49173;43.164;27.786;2023-06-24T00:42:58;100523.50;;;22.10;70.64
63088;BME280;49173;43.164;27.786;2023-06-24T00:45:24;100523.91;;;22.06;71.31
63088;BME280;49173;43.164;27.786;2023-06-24T00:47:51;100529.38;;;22.06;72.65
63088;BME280;49173;43.164;27.786;2023-06-24T00:50:17;100528.41;;;22.07;73.05
63088;BME280;49173;43.164;27.786;2023-06-24T00:52:43;100527.66;;;22.05;73.05
63088;BME280;49173;43.164;27.786;2023-06-24T00:55:14;100525.25;;;22.02;72.79
63088;BME280;49173;43.164;27.786;2023-06-24T00:57:45;100529.88;;;22.01;72.34
63088;BME280;49173;43.164;27.786;2023-06-24T01:00:11;100522.53;;;22.02;72.61
63088;BME280;49173;43.164;27.786;2023-06-24T01:02:42;100519.22;;;21.98;72.48
63088;BME280;49173;43.164;27.786;2023-06-24T01:05:10;100519.09;;;22.00;72.76
63088;BME280;49173;43.164;27.786;2023-06-24T01:07:40;100516.91;;;22.03;73.37
63088;BME280;49173;43.164;27.786;2023-06-24T01:10:07;100512.28;;;22.04;73.25
63088;BME280;49173;43.164;27.786;2023-06-24T01:12:35;100509.72;;;22.02;73.40
63088;BME280;49173;43.164;27.786;2023-06-24T01:15:02;100514.31;;;22.02;73.60
63088;BME280;49173;43.164;27.786;2023-06-24T01:20:44;100507.59;;;21.96;72.94
63088;BME280;49173;43.164;27.786;2023-06-24T01:31:48;100490.88;;;21.81;73.02
63088;BME280;49173;43.164;27.786;2023-06-24T01:34:29;100483.69;;;21.80;72.55
63088;BME280;49173;43.164;27.786;2023-06-24T01:37:14;100483.00;;;21.78;72.98
63088;BME280;49173;43.164;27.786;2023-06-24T01:39:48;100473.69;;;21.71;73.19
63088;BME280;49173;43.164;27.786;2023-06-24T01:42:16;100482.16;;;21.68;72.67
63088;BME280;49173;43.164;27.786;2023-06-24T01:44:45;100486.94;;;21.66;72.56
63088;BME280;49173;43.164;27.786;2023-06-24T01:47:15;100489.97;;;21.63;72.54
63088;BME280;49173;43.164;27.786;2023-06-24T01:49:44;100486.00;;;21.57;72.22
63088;BME280;49173;43.164;27.786;2023-06-24T01:52:11;100488.47;;;21.51;73.05
63088;BME280;49173;43.164;27.786;2023-06-24T01:54:40;100482.16;;;21.50;73.39
63088;BME280;49173;43.164;27.786;2023-06-24T01:57:08;100475.25;;;21.46;73.19
63088;BME280;49173;43.164;27.786;2023-06-24T01:59:38;100477.28;;;21.44;72.82
63088;BME280;49173;43.164;27.786;2023-06-24T02:02:06;100478.75;;;21.38;73.15
63088;BME280;49173;43.164;27.786;2023-06-24T02:04:34;100483.34;;;21.38;73.11
63088;BME280;49173;43.164;27.786;2023-06-24T02:07:02;100493.16;;;21.31;72.95
63088;BME280;49173;43.164;27.786;2023-06-24T02:09:29;100489.72;;;21.19;73.27
63088;BME280;49173;43.164;27.786;2023-06-24T02:12:00;100489.16;;;21.16;73.05
63088;BME280;49173;43.164;27.786;2023-06-24T02:14:27;100492.59;;;21.18;72.72
63088;BME280;49173;43.164;27.786;2023-06-24T02:16:55;100493.88;;;21.13;72.41
63088;BME280;49173;43.164;27.786;2023-06-24T02:19:29;100496.94;;;21.10;72.60
63088;BME280;49173;43.164;27.786;2023-06-24T02:21:57;100506.41;;;21.06;73.07
63088;BME280;49173;43.164;27.786;2023-06-24T02:24:23;100509.03;;;21.08;72.94
63088;BME280;49173;43.164;27.786;2023-06-24T02:26:50;100503.25;;;21.11;73.21
63088;BME280;49173;43.164;27.786;2023-06-24T02:29:17;100500.69;;;21.00;73.33
63088;BME280;49173;43.164;27.786;2023-06-24T02:31:44;100503.19;;;20.93;73.08
63088;BME280;49173;43.164;27.786;2023-06-24T02:34:09;100505.91;;;20.93;73.26
63088;BME280;49173;43.164;27.786;2023-06-24T02:36:35;100513.06;;;20.94;74.29
63088;BME280;49173;43.164;27.786;2023-06-24T02:39:01;100505.16;;;20.91;74.28
63088;BME280;49173;43.164;27.786;2023-06-24T02:41:27;100510.63;;;20.91;74.51
63088;BME280;49173;43.164;27.786;2023-06-24T02:43:53;100507.91;;;20.91;74.44
63088;BME280;49173;43.164;27.786;2023-06-24T02:46:22;100525.00;;;20.93;74.95
63088;BME280;49173;43.164;27.786;2023-06-24T02:48:49;100515.81;;;20.94;75.32
63088;BME280;49173;43.164;27.786;2023-06-24T02:51:16;100519.81;;;20.90;75.20
63088;BME280;49173;43.164;27.786;2023-06-24T02:53:42;100525.59;;;20.87;75.42
63088;BME280;49173;43.164;27.786;2023-06-24T02:56:09;100528.31;;;20.87;75.08
63088;BME280;49173;43.164;27.786;2023-06-24T02:58:37;100530.88;;;20.89;75.22
63088;BME280;49173;43.164;27.786;2023-06-24T03:01:03;100524.25;;;20.91;74.48
63088;BME280;49173;43.164;27.786;2023-06-24T03:03:33;100526.13;;;20.91;74.55
63088;BME280;49173;43.164;27.786;2023-06-24T03:06:00;100531.63;;;20.81;74.65
63088;BME280;49173;43.164;27.786;2023-06-24T03:08:28;100527.59;;;20.75;73.61
63088;BME280;49173;43.164;27.786;2023-06-24T03:10:55;100520.59;;;20.73;73.18
63088;BME280;49173;43.164;27.786;2023-06-24T03:13:24;100529.31;;;20.76;72.94
63088;BME280;49173;43.164;27.786;2023-06-24T03:15:50;100524.03;;;20.75;72.49
63088;BME280;49173;43.164;27.786;2023-06-24T03:18:16;100533.50;;;20.80;72.40
63088;BME280;49173;43.164;27.786;2023-06-24T03:20:43;100539.94;;;20.89;71.83
63088;BME280;49173;43.164;27.786;2023-06-24T03:23:10;100546.09;;;20.91;71.57
63088;BME280;49173;43.164;27.786;2023-06-24T03:25:36;100532.72;;;20.98;71.04
63088;BME280;49173;43.164;27.786;2023-06-24T03:28:02;100534.59;;;20.97;71.18
63088;BME280;49173;43.164;27.786;2023-06-24T03:30:33;100536.31;;;20.98;71.97
63088;BME280;49173;43.164;27.786;2023-06-24T03:32:59;100535.88;;;21.03;72.64
63088;BME280;49173;43.164;27.786;2023-06-24T03:35:24;100540.03;;;21.07;72.72
63088;BME280;49173;43.164;27.786;2023-06-24T03:37:50;100549.66;;;21.11;73.03
63088;BME280;49173;43.164;27.786;2023-06-24T03:40:16;100551.78;;;21.17;73.18
63088;BME280;49173;43.164;27.786;2023-06-24T03:42:42;100553.78;;;21.25;73.25
63088;BME280;49173;43.164;27.786;2023-06-24T03:45:08;100548.16;;;21.26;73.11
63088;BME280;49173;43.164;27.786;2023-06-24T03:47:34;100553.22;;;21.31;74.18
63088;BME280;49173;43.164;27.786;2023-06-24T03:50:00;100552.63;;;21.37;74.29
63088;BME280;49173;43.164;27.786;2023-06-24T03:52:25;100554.59;;;21.45;74.54
63088;BME280;49173;43.164;27.786;2023-06-24T03:54:51;100555.56;;;21.53;75.19
63088;BME280;49173;43.164;27.786;2023-06-24T03:57:18;100555.38;;;21.64;73.34
63088;BME280;49173;43.164;27.786;2023-06-24T03:59:43;100569.00;;;21.74;72.10
63088;BME280;49173;43.164;27.786;2023-06-24T04:02:09;100559.34;;;21.80;71.97
63088;BME280;49173;43.164;27.786;2023-06-24T04:04:35;100564.72;;;21.89;72.40
63088;BME280;49173;43.164;27.786;2023-06-24T04:07:01;100557.97;;;21.93;72.53
63088;BME280;49173;43.164;27.786;2023-06-24T04:09:29;100566.78;;;22.05;71.49
63088;BME280;49173;43.164;27.786;2023-06-24T04:11:55;100564.91;;;22.15;71.66
63088;BME280;49173;43.164;27.786;2023-06-24T04:14:20;100567.97;;;22.30;71.75
63088;BME280;49173;43.164;27.786;2023-06-24T04:16:46;100576.31;;;22.46;73.16
63088;BME280;49173;43.164;27.786;2023-06-24T04:19:12;100575.94;;;22.59;73.40
63088;BME280;49173;43.164;27.786;2023-06-24T04:21:38;100578.28;;;22.72;73.92
63088;BME280;49173;43.164;27.786;2023-06-24T04:24:04;100582.38;;;22.86;73.82
63088;BME280;49173;43.164;27.786;2023-06-24T04:26:30;100580.38;;;22.96;73.33
63088;BME280;49173;43.164;27.786;2023-06-24T04:28:56;100587.34;;;23.08;72.99
63088;BME280;49173;43.164;27.786;2023-06-24T04:31:21;100588.63;;;23.22;72.92
63088;BME280;49173;43.164;27.786;2023-06-24T04:33:47;100578.63;;;23.39;72.43
63088;BME280;49173;43.164;27.786;2023-06-24T04:36:13;100593.09;;;23.49;71.37
63088;BME280;49173;43.164;27.786;2023-06-24T04:38:39;100588.34;;;23.59;71.33
63088;BME280;49173;43.164;27.786;2023-06-24T04:41:04;100594.63;;;23.69;70.33
63088;BME280;49173;43.164;27.786;2023-06-24T04:43:30;100586.09;;;23.80;70.83
63088;BME280;49173;43.164;27.786;2023-06-24T04:45:56;100590.59;;;23.90;69.40
63088;BME280;49173;43.164;27.786;2023-06-24T04:48:26;100593.03;;;24.01;69.64
63088;BME280;49173;43.164;27.786;2023-06-24T04:50:53;100589.28;;;24.10;70.25
63088;BME280;49173;43.164;27.786;2023-06-24T04:53:23;100591.56;;;24.23;69.85
63088;BME280;49173;43.164;27.786;2023-06-24T04:55:49;100594.72;;;24.36;69.80
63088;BME280;49173;43.164;27.786;2023-06-24T04:58:15;100605.03;;;24.50;68.88
63088;BME280;49173;43.164;27.786;2023-06-24T05:00:40;100604.34;;;24.64;68.91
63088;BME280;49173;43.164;27.786;2023-06-24T05:03:06;100598.88;;;24.73;69.15
63088;BME280;49173;43.164;27.786;2023-06-24T05:05:32;100603.50;;;24.80;68.47
63088;BME280;49173;43.164;27.786;2023-06-24T05:07:58;100600.94;;;24.87;68.48
63088;BME280;49173;43.164;27.786;2023-06-24T05:10:24;100602.81;;;24.94;69.07
63088;BME280;49173;43.164;27.786;2023-06-24T05:12:49;100600.97;;;25.03;68.83
63088;BME280;49173;43.164;27.786;2023-06-24T05:15:15;100587.94;;;25.13;68.04
63088;BME280;49173;43.164;27.786;2023-06-24T05:17:42;100587.59;;;25.25;68.20
63088;BME280;49173;43.164;27.786;2023-06-24T05:20:08;100597.69;;;25.32;67.91
63088;BME280;49173;43.164;27.786;2023-06-24T05:22:35;100591.16;;;25.41;67.65
63088;BME280;49173;43.164;27.786;2023-06-24T05:25:01;100583.72;;;25.50;66.40
63088;BME280;49173;43.164;27.786;2023-06-24T05:27:26;100585.44;;;25.59;63.99
63088;BME280;49173;43.164;27.786;2023-06-24T05:29:52;100588.16;;;25.67;63.73
63088;BME280;49173;43.164;27.786;2023-06-24T05:32:18;100591.97;;;25.74;62.31
63088;BME280;49173;43.164;27.786;2023-06-24T05:34:46;100589.84;;;25.85;62.46
63088;BME280;49173;43.164;27.786;2023-06-24T05:37:12;100588.59;;;25.95;61.36
63088;BME280;49173;43.164;27.786;2023-06-24T05:39:38;100591.81;;;26.07;61.35
63088;BME280;49173;43.164;27.786;2023-06-24T05:42:04;100582.97;;;26.20;60.32
63088;BME280;49173;43.164;27.786;2023-06-24T05:44:29;100597.72;;;26.27;59.17
63088;BME280;49173;43.164;27.786;2023-06-24T05:46:55;100591.19;;;26.28;57.05
63088;BME280;49173;43.164;27.786;2023-06-24T05:49:21;100582.38;;;26.33;56.17
63088;BME280;49173;43.164;27.786;2023-06-24T05:51:47;100577.84;;;26.48;54.98
63088;BME280;49173;43.164;27.786;2023-06-24T05:54:12;100578.63;;;26.56;53.76
63088;BME280;49173;43.164;27.786;2023-06-24T05:56:38;100579.94;;;26.69;54.67
63088;BME280;49173;43.164;27.786;2023-06-24T05:59:04;100577.81;;;26.79;53.74
63088;BME280;49173;43.164;27.786;2023-06-24T06:01:30;100576.03;;;26.86;51.35
63088;BME280;49173;43.164;27.786;2023-06-24T06:03:56;100575.44;;;26.91;51.55
63088;BME280;49173;43.164;27.786;2023-06-24T06:06:22;100573.84;;;26.96;50.74
63088;BME280;49173;43.164;27.786;2023-06-24T06:08:48;100576.06;;;27.01;51.63
63088;BME280;49173;43.164;27.786;2023-06-24T06:11:14;100577.06;;;27.08;50.02
63088;BME280;49173;43.164;27.786;2023-06-24T06:13:40;100577.56;;;27.03;49.90
63088;BME280;49173;43.164;27.786;2023-06-24T06:16:06;100573.19;;;27.17;51.17
63088;BME280;49173;43.164;27.786;2023-06-24T06:18:32;100560.38;;;27.24;49.05
63088;BME280;49173;43.164;27.786;2023-06-24T06:20:58;100565.03;;;27.38;48.94
63088;BME280;49173;43.164;27.786;2023-06-24T06:23:24;100564.47;;;27.43;47.62
63088;BME280;49173;43.164;27.786;2023-06-24T06:25:51;100553.91;;;27.47;46.95
63088;BME280;49173;43.164;27.786;2023-06-24T06:28:17;100555.91;;;27.53;47.57
63088;BME280;49173;43.164;27.786;2023-06-24T06:30:43;100554.41;;;27.65;46.33
63088;BME280;49173;43.164;27.786;2023-06-24T06:33:13;100556.53;;;27.78;46.51
63088;BME280;49173;43.164;27.786;2023-06-24T06:35:40;100549.00;;;27.86;43.64
63088;BME280;49173;43.164;27.786;2023-06-24T06:38:05;100554.00;;;27.98;43.47
63088;BME280;49173;43.164;27.786;2023-06-24T06:40:31;100551.72;;;28.01;43.63
63088;BME280;49173;43.164;27.786;2023-06-24T06:42:57;100547.78;;;28.10;43.78
63088;BME280;49173;43.164;27.786;2023-06-24T06:45:23;100559.66;;;28.26;45.53
63088;BME280;49173;43.164;27.786;2023-06-24T06:47:49;100550.69;;;28.38;42.91
63088;BME280;49173;43.164;27.786;2023-06-24T06:50:16;100545.44;;;28.43;41.77
63088;BME280;49173;43.164;27.786;2023-06-24T06:52:42;100548.94;;;28.52;41.98
63088;BME280;49173;43.164;27.786;2023-06-24T06:55:09;100538.44;;;28.62;41.91
63088;BME280;49173;43.164;27.786;2023-06-24T06:57:35;100538.28;;;28.70;38.95
63088;BME280;49173;43.164;27.786;2023-06-24T07:00:01;100531.56;;;28.80;39.55
63088;BME280;49173;43.164;27.786;2023-06-24T07:02:27;100537.25;;;28.93;39.25
63088;BME280;49173;43.164;27.786;2023-06-24T07:04:52;100528.78;;;29.01;39.15
63088;BME280;49173;43.164;27.786;2023-06-24T07:07:18;100529.75;;;29.15;40.45
63088;BME280;49173;43.164;27.786;2023-06-24T07:09:45;100529.22;;;29.26;39.96
63088;BME280;49173;43.164;27.786;2023-06-24T07:12:12;100525.88;;;29.37;40.01
63088;BME280;49173;43.164;27.786;2023-06-24T07:14:39;100531.91;;;29.47;39.53
63088;BME280;49173;43.164;27.786;2023-06-24T07:17:05;100531.56;;;29.57;39.89
63088;BME280;49173;43.164;27.786;2023-06-24T07:19:31;100537.59;;;29.67;39.94
63088;BME280;49173;43.164;27.786;2023-06-24T07:21:56;100530.81;;;29.76;39.06
63088;BME280;49173;43.164;27.786;2023-06-24T07:24:22;100534.25;;;29.85;38.12
63088;BME280;49173;43.164;27.786;2023-06-24T07:26:48;100524.06;;;29.92;38.62
63088;BME280;49173;43.164;27.786;2023-06-24T07:29:14;100537.50;;;30.02;38.93
63088;BME280;49173;43.164;27.786;2023-06-24T07:31:44;100537.78;;;30.14;38.53
63088;BME280;49173;43.164;27.786;2023-06-24T07:34:13;100537.19;;;30.18;38.14
63088;BME280;49173;43.164;27.786;2023-06-24T07:36:48;100534.63;;;30.23;40.01
63088;BME280;49173;43.164;27.786;2023-06-24T07:39:17;100527.59;;;30.21;38.98
63088;BME280;49173;43.164;27.786;2023-06-24T07:41:47;100530.38;;;30.21;38.74
63088;BME280;49173;43.164;27.786;2023-06-24T07:44:16;100535.91;;;30.21;38.80
63088;BME280;49173;43.164;27.786;2023-06-24T07:46:41;100543.16;;;30.28;40.13
63088;BME280;49173;43.164;27.786;2023-06-24T07:49:16;100546.16;;;30.33;40.07
63088;BME280;49173;43.164;27.786;2023-06-24T07:51:43;100535.72;;;30.35;39.44
63088;BME280;49173;43.164;27.786;2023-06-24T07:54:14;100534.25;;;30.40;40.10
63088;BME280;49173;43.164;27.786;2023-06-24T07:56:43;100538.28;;;30.44;39.36
63088;BME280;49173;43.164;27.786;2023-06-24T07:59:12;100547.28;;;30.52;39.47
63088;BME280;49173;43.164;27.786;2023-06-24T08:01:42;100538.78;;;30.60;40.05
63088;BME280;49173;43.164;27.786;2023-06-24T08:04:14;100546.44;;;30.65;40.92
63088;BME280;49173;43.164;27.786;2023-06-24T08:06:45;100541.59;;;30.67;40.80
63088;BME280;49173;43.164;27.786;2023-06-24T08:09:34;100537.09;;;30.73;41.32
63088;BME280;49173;43.164;27.786;2023-06-24T08:12:04;100533.69;;;30.77;40.40
63088;BME280;49173;43.164;27.786;2023-06-24T08:14:30;100542.25;;;30.89;42.98
63088;BME280;49173;43.164;27.786;2023-06-24T08:16:57;100526.88;;;30.93;40.48
63088;BME280;49173;43.164;27.786;2023-06-24T08:19:23;100526.00;;;30.93;42.48
63088;BME280;49173;43.164;27.786;2023-06-24T08:21:52;100538.81;;;30.94;42.71
63088;BME280;49173;43.164;27.786;2023-06-24T08:24:22;100527.31;;;30.90;44.35
63088;BME280;49173;43.164;27.786;2023-06-24T08:26:57;100513.84;;;30.94;44.27
63088;BME280;49173;43.164;27.786;2023-06-24T08:29:26;100519.22;;;30.95;43.17
63088;BME280;49173;43.164;27.786;2023-06-24T08:31:55;100513.66;;;30.88;44.58
63088;BME280;49173;43.164;27.786;2023-06-24T08:34:26;100522.22;;;30.87;42.16
63088;BME280;49173;43.164;27.786;2023-06-24T08:37:02;100521.34;;;30.73;42.45
63088;BME280;49173;43.164;27.786;2023-06-24T08:39:31;100526.44;;;30.70;42.87
63088;BME280;49173;43.164;27.786;2023-06-24T08:41:57;100528.59;;;30.74;44.52
63088;BME280;49173;43.164;27.786;2023-06-24T08:44:24;100525.59;;;30.82;44.29
63088;BME280;49173;43.164;27.786;2023-06-24T08:46:56;100524.75;;;30.82;43.17
63088;BME280;49173;43.164;27.786;2023-06-24T08:49:26;100528.59;;;30.87;43.51
63088;BME280;49173;43.164;27.786;2023-06-24T08:52:19;100525.16;;;30.99;42.94
63088;BME280;49173;43.164;27.786;2023-06-24T08:54:55;100519.63;;;31.12;43.24
63088;BME280;49173;43.164;27.786;2023-06-24T08:57:26;100526.00;;;31.19;42.53
63088;BME280;49173;43.164;27.786;2023-06-24T08:59:56;100520.47;;;31.26;43.18
63088;BME280;49173;43.164;27.786;2023-06-24T09:02:25;100522.81;;;31.35;41.21
63088;BME280;49173;43.164;27.786;2023-06-24T09:05:22;100533.25;;;31.47;42.06
63088;BME280;49173;43.164;27.786;2023-06-24T09:07:54;100528.53;;;31.47;41.40
63088;BME280;49173;43.164;27.786;2023-06-24T09:10:37;100516.16;;;31.50;40.94
63088;BME280;49173;43.164;27.786;2023-06-24T09:13:09;100522.75;;;31.55;40.70
63088;BME280;49173;43.164;27.786;2023-06-24T09:15:41;100526.84;;;31.53;40.41
63088;BME280;49173;43.164;27.786;2023-06-24T09:18:10;100523.63;;;31.49;41.08
63088;BME280;49173;43.164;27.786;2023-06-24T09:20:44;100524.28;;;31.44;40.76
63088;BME280;49173;43.164;27.786;2023-06-24T09:23:19;100523.44;;;31.51;42.13
63088;BME280;49173;43.164;27.786;2023-06-24T09:25:55;100523.38;;;31.57;42.60
63088;BME280;49173;43.164;27.786;2023-06-24T09:28:29;100527.41;;;31.68;43.55
63088;BME280;49173;43.164;27.786;2023-06-24T09:31:06;100526.78;;;31.73;41.95
63088;BME280;49173;43.164;27.786;2023-06-24T09:33:35;100528.47;;;31.74;41.29
63088;BME280;49173;43.164;27.786;2023-06-24T09:36:03;100522.13;;;31.60;42.14
63088;BME280;49173;43.164;27.786;2023-06-24T09:38:45;100537.44;;;31.69;40.87
63088;BME280;49173;43.164;27.786;2023-06-24T09:41:16;100524.66;;;31.68;40.16
63088;BME280;49173;43.164;27.786;2023-06-24T09:43:46;100517.38;;;31.74;40.19
63088;BME280;49173;43.164;27.786;2023-06-24T09:46:20;100523.56;;;31.82;39.74
63088;BME280;49173;43.164;27.786;2023-06-24T09:48:53;100521.41;;;31.84;39.91
63088;BME280;49173;43.164;27.786;2023-06-24T09:51:29;100513.94;;;31.85;39.86
63088;BME280;49173;43.164;27.786;2023-06-24T09:54:06;100522.03;;;31.93;39.34
63088;BME280;49173;43.164;27.786;2023-06-24T09:56:39;100507.25;;;31.99;38.39
63088;BME280;49173;43.164;27.786;2023-06-24T09:59:13;100508.72;;;32.08;37.97
63088;BME280;49173;43.164;27.786;2023-06-24T10:01:47;100510.44;;;32.03;36.73
63088;BME280;49173;43.164;27.786;2023-06-24T10:04:24;100494.47;;;31.91;36.83
63088;BME280;49173;43.164;27.786;2023-06-24T10:06:58;100500.22;;;31.96;36.08
63088;BME280;49173;43.164;27.786;2023-06-24T10:09:28;100498.88;;;32.06;35.26
63088;BME280;49173;43.164;27.786;2023-06-24T10:12:00;100504.25;;;32.07;35.21
63088;BME280;49173;43.164;27.786;2023-06-24T10:14:33;100502.50;;;32.06;34.42
63088;BME280;49173;43.164;27.786;2023-06-24T10:17:07;100496.34;;;32.04;35.82
63088;BME280;49173;43.164;27.786;2023-06-24T10:19:43;100505.72;;;32.10;35.46
63088;BME280;49173;43.164;27.786;2023-06-24T10:22:18;100510.13;;;32.24;36.45
63088;BME280;49173;43.164;27.786;2023-06-24T10:24:47;100512.38;;;32.40;36.23
63088;BME280;49173;43.164;27.786;2023-06-24T10:27:20;100499.75;;;32.44;34.89
63088;BME280;49173;43.164;27.786;2023-06-24T10:30:04;100502.16;;;32.34;35.63
63088;BME280;49173;43.164;27.786;2023-06-24T10:32:40;100495.34;;;32.30;35.44
63088;BME280;49173;43.164;27.786;2023-06-24T10:35:26;100494.34;;;32.18;34.99
63088;BME280;49173;43.164;27.786;2023-06-24T10:38:00;100483.69;;;32.15;35.58
63088;BME280;49173;43.164;27.786;2023-06-24T10:40:43;100489.84;;;32.17;35.67
63088;BME280;49173;43.164;27.786;2023-06-24T10:43:33;100488.13;;;32.22;35.44
63088;BME280;49173;43.164;27.786;2023-06-24T10:46:26;100482.06;;;32.39;35.17
63088;BME280;49173;43.164;27.786;2023-06-24T10:49:02;100480.78;;;32.35;34.69
63088;BME280;49173;43.164;27.786;2023-06-24T10:51:32;100476.13;;;32.29;35.19
63088;BME280;49173;43.164;27.786;2023-06-24T10:54:04;100476.91;;;32.42;35.33
63088;BME280;49173;43.164;27.786;2023-06-24T10:56:33;100480.94;;;32.46;35.57
63088;BME280;49173;43.164;27.786;2023-06-24T10:59:02;100482.19;;;32.50;36.27
63088;BME280;49173;43.164;27.786;2023-06-24T11:01:32;100476.69;;;32.69;37.50
63088;BME280;49173;43.164;27.786;2023-06-24T11:04:11;100474.03;;;32.80;36.18
63088;BME280;49173;43.164;27.786;2023-06-24T11:07:11;100465.13;;;32.72;35.77
63088;BME280;49173;43.164;27.786;2023-06-24T11:09:34;100463.06;;;32.61;35.04
63088;BME280;49173;43.164;27.786;2023-06-24T11:12:05;100464.94;;;32.67;35.56
63088;BME280;49173;43.164;27.786;2023-06-24T11:14:37;100460.81;;;32.76;35.77
63088;BME280;49173;43.164;27.786;2023-06-24T11:17:07;100457.31;;;32.87;35.45
63088;BME280;49173;43.164;27.786;2023-06-24T11:19:35;100457.09;;;32.89;35.71
63088;BME280;49173;43.164;27.786;2023-06-24T11:22:11;100456.84;;;32.90;36.21
63088;BME280;49173;43.164;27.786;2023-06-24T11:24:37;100447.53;;;32.78;36.25
63088;BME280;49173;43.164;27.786;2023-06-24T11:27:24;100446.19;;;32.87;36.39
63088;BME280;49173;43.164;27.786;2023-06-24T11:29:58;100442.34;;;32.88;33.67
63088;BME280;49173;43.164;27.786;2023-06-24T11:32:43;100437.03;;;32.80;35.11
63088;BME280;49173;43.164;27.786;2023-06-24T11:35:14;100442.13;;;32.83;36.95
63088;BME280;49173;43.164;27.786;2023-06-24T11:37:51;100434.03;;;32.82;34.80
63088;BME280;49173;43.164;27.786;2023-06-24T11:40:30;100428.22;;;32.83;34.99
63088;BME280;49173;43.164;27.786;2023-06-24T11:43:03;100434.09;;;33.00;35.58
63088;BME280;49173;43.164;27.786;2023-06-24T11:45:33;100419.03;;;33.08;34.40
63088;BME280;49173;43.164;27.786;2023-06-24T11:48:29;100421.03;;;33.00;34.23
63088;BME280;49173;43.164;27.786;2023-06-24T11:50:58;100417.47;;;32.93;34.22
63088;BME280;49173;43.164;27.786;2023-06-24T11:53:47;100417.06;;;32.90;35.13
63088;BME280;49173;43.164;27.786;2023-06-24T11:56:21;100408.97;;;32.88;34.06
63088;BME280;49173;43.164;27.786;2023-06-24T11:59:07;100409.59;;;32.90;35.31
63088;BME280;49173;43.164;27.786;2023-06-24T12:01:34;100413.16;;;32.97;35.26
63088;BME280;49173;43.164;27.786;2023-06-24T12:04:16;100413.56;;;33.01;34.13
63088;BME280;49173;43.164;27.786;2023-06-24T12:06:46;100412.22;;;33.03;32.67
63088;BME280;49173;43.164;27.786;2023-06-24T12:09:18;100409.28;;;32.98;33.28
63088;BME280;49173;43.164;27.786;2023-06-24T12:11:46;100408.34;;;33.04;32.62
63088;BME280;49173;43.164;27.786;2023-06-24T12:14:18;100412.16;;;33.10;33.69
63088;BME280;49173;43.164;27.786;2023-06-24T12:16:47;100412.41;;;33.27;34.64
63088;BME280;49173;43.164;27.786;2023-06-24T12:19:17;100411.16;;;33.23;33.87
63088;BME280;49173;43.164;27.786;2023-06-24T12:21:52;100412.31;;;33.15;33.75
63088;BME280;49173;43.164;27.786;2023-06-24T12:24:22;100415.66;;;33.05;34.29
63088;BME280;49173;43.164;27.786;2023-06-24T12:26:54;100418.81;;;33.09;33.42
63088;BME280;49173;43.164;27.786;2023-06-24T12:29:33;100413.41;;;33.14;34.15
63088;BME280;49173;43.164;27.786;2023-06-24T12:32:05;100411.16;;;33.23;34.34
63088;BME280;49173;43.164;27.786;2023-06-24T12:34:35;100416.19;;;33.14;33.97
63088;BME280;49173;43.164;27.786;2023-06-24T12:37:10;100417.28;;;33.13;33.52
63088;BME280;49173;43.164;27.786;2023-06-24T12:39:37;100422.91;;;33.25;34.01
63088;BME280;49173;43.164;27.786;2023-06-24T12:42:08;100417.09;;;33.26;32.54
63088;BME280;49173;43.164;27.786;2023-06-24T12:44:40;100421.72;;;33.32;32.15
63088;BME280;49173;43.164;27.786;2023-06-24T12:47:10;100415.56;;;33.30;31.96
63088;BME280;49173;43.164;27.786;2023-06-24T13:00:59;100413.16;;;33.16;31.63
63088;BME280;49173;43.164;27.786;2023-06-24T14:14:09;100338.78;;;32.93;33.60
63088;BME280;49173;43.164;27.786;2023-06-24T14:16:47;100336.53;;;33.01;32.92
63088;BME280;49173;43.164;27.786;2023-06-24T14:19:34;100334.13;;;33.05;33.56
63088;BME280;49173;43.164;27.786;2023-06-24T14:22:01;100342.00;;;33.08;31.65
63088;BME280;49173;43.164;27.786;2023-06-24T14:24:31;100333.19;;;33.11;30.13
63088;BME280;49173;43.164;27.786;2023-06-24T14:27:06;100333.66;;;33.08;30.30